Time;durP1;ratioP1;P1;durP2;ratioP2;P2;SDS_P1;SDS_P2;PMS_P1;PMS_P2;Temp;Humidity;BMP_temperature;BMP_pressure;BME280_temperature;BME280_humidity;BME280_pressure;Samples;Min_cycle;Max_cycle;Signal;HPM_P1;HPM_P2
2022/11/20 00:01:07;;;;;;;1.83;1.40;;;;;;;5.23;83.03;100453.22;5005507;28;20673;-70
2022/11/20 00:03:32;;;;;;;3.67;1.80;;;;;;;5.33;83.28;100458.97;5005607;28;20048;-70
2022/11/20 00:06:03;;;;;;;2.20;1.42;;;;;;;5.39;82.82;100452.34;5019205;28;20737;-70
2022/11/20 00:08:28;;;;;;;1.35;1.25;;;;;;;5.40;82.76;100453.91;5006362;28;20043;-70
2022/11/20 00:10:54;;;;;;;5.15;1.95;;;;;;;5.38;83.08;100456.09;5005570;28;20105;-70
2022/11/20 00:13:19;;;;;;;2.20;1.35;;;;;;;5.45;83.12;100456.41;4995620;28;20037;-70
2022/11/20 00:15:45;;;;;;;2.55;1.88;;;;;;;5.45;82.56;100459.06;4992108;28;20053;-71
2022/11/20 00:18:10;;;;;;;2.00;1.55;;;;;;;5.40;82.88;100461.91;5003237;28;20537;-70
2022/11/20 00:20:35;;;;;;;0.93;0.93;;;;;;;5.37;82.92;100454.56;5008265;28;20038;-70
2022/11/20 00:23:01;;;;;;;1.92;1.60;;;;;;;5.41;82.84;100460.81;4999271;28;20022;-70
2022/11/20 00:25:26;;;;;;;1.85;1.20;;;;;;;5.46;82.42;100457.16;5002665;28;20041;-71
2022/11/20 00:27:52;;;;;;;2.10;1.30;;;;;;;5.50;82.69;100456.19;5005072;28;20057;-70
2022/11/20 00:30:18;;;;;;;0.73;0.73;;;;;;;5.39;81.86;100455.03;5006849;28;20051;-70
2022/11/20 00:32:43;;;;;;;1.23;1.05;;;;;;;5.44;82.86;100454.81;4999121;28;20471;-70
2022/11/20 00:35:08;;;;;;;2.33;1.23;;;;;;;5.53;82.72;100456.66;4994197;28;20380;-70
2022/11/20 00:37:34;;;;;;;1.52;1.20;;;;;;;5.44;82.97;100460.16;4996632;28;20038;-71
2022/11/20 00:39:59;;;;;;;1.27;1.17;;;;;;;5.34;83.32;100444.50;5001220;28;20458;-70
2022/11/20 00:42:25;;;;;;;1.58;1.42;;;;;;;5.41;83.05;100450.13;5000197;28;20022;-70
2022/11/20 00:44:50;;;;;;;1.85;1.20;;;;;;;5.40;82.84;100442.47;4992288;28;20038;-70
2022/11/20 00:47:15;;;;;;;1.23;1.13;;;;;;;5.42;83.20;100443.69;4994547;28;20076;-70
2022/11/20 00:49:41;;;;;;;3.58;1.30;;;;;;;5.43;82.76;100447.13;5006052;28;20050;-70
2022/11/20 00:52:09;;;;;;;1.52;1.20;;;;;;;5.41;83.00;100444.78;5002993;28;20017;-71
2022/11/20 00:54:35;;;;;;;1.55;1.38;;;;;;;5.40;83.18;100448.56;4993499;28;20097;-70
2022/11/20 00:57:00;;;;;;;2.80;1.58;;;;;;;5.42;83.07;100443.69;4994940;28;20038;-70
2022/11/20 00:59:25;;;;;;;2.90;1.52;;;;;;;5.42;83.66;100443.69;5001284;28;20442;-70
2022/11/20 01:01:51;;;;;;;5.00;1.60;;;;;;;5.36;83.29;100436.19;4994133;28;20487;-70
2022/11/20 01:04:16;;;;;;;1.38;1.27;;;;;;;5.42;83.49;100446.34;5010833;28;20538;-70
2022/11/20 01:06:42;;;;;;;2.10;1.63;;;;;;;5.39;83.88;100439.00;5006856;28;20038;-70
2022/11/20 01:09:13;;;;;;;1.48;1.20;;;;;;;5.41;83.30;100433.34;5010481;28;20029;-70
2022/11/20 01:11:41;;;;;;;1.58;1.27;;;;;;;5.30;83.74;100442.84;5010207;28;20037;-70
2022/11/20 01:14:11;;;;;;;1.65;1.23;;;;;;;5.32;83.78;100436.03;5008555;28;20058;-71
2022/11/20 01:16:39;;;;;;;1.60;1.40;;;;;;;5.25;84.62;100427.00;5009137;28;20036;-70
2022/11/20 01:19:09;;;;;;;2.50;1.90;;;;;;;5.28;84.44;100426.38;5009435;28;20034;-71
2022/11/20 01:21:37;;;;;;;2.30;1.20;;;;;;;5.30;84.34;100424.16;5008144;28;20569;-70
2022/11/20 01:24:04;;;;;;;2.65;0.90;;;;;;;5.41;84.15;100426.09;5014147;28;20534;-71
2022/11/20 01:26:31;;;;;;;1.55;1.25;;;;;;;5.30;83.99;100429.50;5014814;28;20569;-70
2022/11/20 01:28:58;;;;;;;4.43;1.50;;;;;;;5.33;84.20;100436.84;5009205;28;20040;-70
2022/11/20 01:31:27;;;;;;;1.67;1.38;;;;;;;5.30;84.18;100424.16;5014516;28;20040;-70
2022/11/20 01:33:55;;;;;;;2.63;1.33;;;;;;;5.36;84.92;100417.53;5014430;28;20042;-70
2022/11/20 01:36:22;;;;;;;1.30;1.20;;;;;;;5.41;85.03;100417.31;5013387;28;20602;-70
2022/11/20 01:38:52;;;;;;;1.77;1.27;;;;;;;5.45;84.31;100415.56;5011736;28;20057;-70
2022/11/20 01:44:11;;;;;;;1.23;1.13;;;;;;;5.47;84.00;100408.00;5002663;28;20463;-71
2022/11/20 01:46:40;;;;;;;1.90;1.23;;;;;;;5.42;84.21;100398.28;5012086;28;20034;-70
2022/11/20 01:49:19;;;;;;;1.45;1.20;;;;;;;5.45;84.05;100396.88;5013343;28;20042;-70
2022/11/20 01:52:01;;;;;;;1.52;1.10;;;;;;;5.48;84.63;100397.00;5011136;28;20034;-70
2022/11/20 01:54:49;;;;;;;;;;;;;;;5.43;83.93;100397.19;5008249;28;20871;-70
2022/11/20 01:57:17;;;;;;;1.30;1.20;;;;;;;5.42;84.64;100402.84;4998340;28;19913;-70
2022/11/20 01:59:47;;;;;;;2.75;1.85;;;;;;;5.32;84.27;100404.00;5013949;28;20038;-70
2022/11/20 02:02:19;;;;;;;1.88;1.52;;;;;;;5.38;84.95;100402.72;5013705;28;20033;-70
2022/11/20 02:04:44;;;;;;;1.88;1.73;;;;;;;5.26;85.58;100385.88;5028299;23;20572;-65
2022/11/20 02:07:10;;;;;;;5.07;1.67;;;;;;;5.25;85.29;100390.41;5024162;28;20045;-65
2022/11/20 02:09:35;;;;;;;5.28;1.50;;;;;;;5.22;85.31;100383.06;5014141;28;20490;-64
2022/11/20 02:12:02;;;;;;;2.05;1.52;;;;;;;5.22;85.46;100383.06;4999371;28;20038;-65
2022/11/20 02:14:29;;;;;;;2.75;1.67;;;;;;;5.30;85.92;100386.78;5012296;28;20091;-64
2022/11/20 02:16:55;;;;;;;2.25;1.65;;;;;;;5.36;85.75;100383.56;5012238;28;20087;-64
2022/11/20 02:19:30;;;;;;;1.70;1.30;;;;;;;5.36;85.60;100382.81;5006504;28;20112;-65
2022/11/20 02:22:14;;;;;;;1.10;1.08;;;;;;;5.43;85.20;100373.16;5008780;28;20030;-65
2022/11/20 02:24:41;;;;;;;1.42;1.23;;;;;;;5.40;85.74;100379.16;5011570;28;20050;-64
2022/11/20 02:27:12;;;;;;;2.85;1.42;;;;;;;5.50;84.80;100384.09;5012248;28;20065;-64
2022/11/20 02:29:52;;;;;;;3.00;1.85;;;;;;;5.52;85.18;100372.31;5007634;28;20038;-64
2022/11/20 02:32:22;;;;;;;1.90;1.65;;;;;;;5.52;85.19;100375.75;5010618;28;20033;-65
2022/11/20 02:34:47;;;;;;;3.00;1.40;;;;;;;5.48;85.44;100385.53;5012945;28;20511;-64
2022/11/20 02:37:14;;;;;;;1.63;1.45;;;;;;;5.51;84.81;100374.19;5010396;28;20018;-64
2022/11/20 02:39:40;;;;;;;1.00;1.00;;;;;;;5.47;85.47;100368.75;5013583;28;20414;-65
2022/11/20 02:42:05;;;;;;;2.88;2.28;;;;;;;5.38;85.39;100375.25;5011181;28;20021;-65
2022/11/20 02:44:31;;;;;;;1.33;1.23;;;;;;;5.39;86.13;100372.25;5011367;28;20038;-64
2022/11/20 02:46:58;;;;;;;2.17;1.45;;;;;;;5.46;85.35;100366.38;5009512;28;20545;-64
2022/11/20 02:49:24;;;;;;;2.63;1.60;;;;;;;5.46;85.79;100367.16;5012521;28;20049;-64
2022/11/20 02:51:49;;;;;;;1.55;1.45;;;;;;;5.33;86.60;100364.75;5007927;28;20105;-64
2022/11/20 02:54:18;;;;;;;1.80;1.40;;;;;;;5.37;86.31;100358.47;5005958;28;20570;-64
2022/11/20 02:56:43;;;;;;;2.58;1.70;;;;;;;5.45;86.20;100367.50;5009650;28;20069;-64
2022/11/20 02:59:09;;;;;;;1.98;1.20;;;;;;;5.43;86.25;100357.16;5011630;28;20053;-64
2022/11/20 03:01:35;;;;;;;2.05;1.42;;;;;;;5.39;86.44;100360.78;5011641;28;20026;-65
2022/11/20 03:04:01;;;;;;;1.70;1.27;;;;;;;5.43;86.19;100351.03;5011622;28;20386;-64
2022/11/20 03:06:26;;;;;;;1.83;1.40;;;;;;;5.42;86.30;100355.56;5009916;28;20129;-65
2022/11/20 03:08:52;;;;;;;1.50;1.40;;;;;;;5.28;86.89;100352.38;5006394;28;20034;-64
2022/11/20 03:11:17;;;;;;;4.20;1.75;;;;;;;5.34;87.13;100350.31;5011675;28;20030;-64
2022/11/20 03:13:43;;;;;;;2.42;1.33;;;;;;;5.33;87.10;100357.53;5011091;28;20556;-64
2022/11/20 03:16:13;;;;;;;6.18;1.73;;;;;;;5.32;86.90;100355.97;5003282;28;20030;-64
2022/11/20 03:18:40;;;;;;;1.98;1.40;;;;;;;5.31;86.66;100353.63;5008375;28;20121;-65
2022/11/20 03:21:06;;;;;;;2.13;1.42;;;;;;;5.36;86.77;100359.53;5012293;28;20022;-64
2022/11/20 03:23:32;;;;;;;4.75;1.38;;;;;;;5.38;86.85;100356.56;5010920;28;20042;-65
2022/11/20 03:26:27;;;;;;;3.05;1.75;;;;;;;5.33;87.31;100362.09;5011527;28;20049;-64
2022/11/20 03:28:55;;;;;;;1.38;1.10;;;;;;;5.37;86.95;100352.31;5006755;28;20104;-65
2022/11/20 03:31:27;;;;;;;2.03;1.60;;;;;;;5.30;86.98;100357.41;5005862;28;20069;-64
2022/11/20 03:33:52;;;;;;;;;;;;;;;5.33;87.11;100357.53;5010943;28;20033;-65
2022/11/20 03:36:19;;;;;;;2.97;1.45;;;;;;;5.38;86.55;100349.31;5011229;28;20500;-64
2022/11/20 03:38:45;;;;;;;2.85;1.55;;;;;;;5.42;86.78;100350.22;5006046;28;20088;-65
2022/11/20 03:41:19;;;;;;;2.42;1.65;;;;;;;5.40;86.99;100347.09;5012050;28;20042;-65
2022/11/20 03:43:53;;;;;;;1.55;1.40;;;;;;;5.34;86.89;100348.41;5009064;28;20029;-64
2022/11/20 03:46:19;;;;;;;1.30;1.20;;;;;;;5.27;87.52;100352.72;5009044;28;20030;-65
2022/11/20 03:48:44;;;;;;;2.78;1.60;;;;;;;5.31;87.27;100343.75;5008260;28;20587;-65
2022/11/20 03:51:11;;;;;;;2.05;1.73;;;;;;;5.32;87.40;100337.28;5011053;28;20081;-65
2022/11/20 03:53:37;;;;;;;1.50;1.40;;;;;;;5.35;87.58;100341.97;5003713;28;20037;-65
2022/11/20 03:56:04;;;;;;;3.40;1.70;;;;;;;5.37;87.69;100344.31;5024843;28;20041;-64
2022/11/20 03:58:29;;;;;;;2.28;1.30;;;;;;;5.32;87.21;100329.28;4993733;28;20026;-64
2022/11/20 04:00:54;;;;;;;1.98;1.50;;;;;;;5.27;87.96;100326.81;5012067;28;20486;-65
2022/11/20 04:03:20;;;;;;;3.33;1.58;;;;;;;5.21;88.25;100322.00;4999220;28;20066;-65
2022/11/20 04:05:45;;;;;;;2.80;1.92;;;;;;;5.28;87.68;100325.69;5010781;28;20377;-65
2022/11/20 04:08:11;;;;;;;2.47;1.25;;;;;;;5.31;87.26;100317.03;5011102;28;20087;-65
2022/11/20 04:10:36;;;;;;;1.58;1.48;;;;;;;5.31;87.77;100326.94;5009794;28;20030;-65
2022/11/20 04:13:02;;;;;;;2.25;1.60;;;;;;;5.31;87.63;100322.38;5009925;28;20121;-65
2022/11/20 04:15:27;;;;;;;1.23;1.02;;;;;;;5.28;87.95;100322.25;5003636;28;20030;-65
2022/11/20 04:17:53;;;;;;;2.30;1.77;;;;;;;5.29;87.51;100327.28;5003205;28;20049;-65
2022/11/20 04:20:19;;;;;;;1.38;1.27;;;;;;;5.27;86.95;100326.03;5009634;28;20034;-65
2022/11/20 04:22:44;;;;;;;4.25;1.70;;;;;;;5.20;87.89;100325.78;5006683;28;20036;-65
2022/11/20 04:25:10;;;;;;;1.42;1.33;;;;;;;5.14;87.88;100319.88;5010903;28;20533;-65
2022/11/20 04:27:35;;;;;;;1.52;1.17;;;;;;;5.28;87.50;100323.03;5008743;28;20459;-65
2022/11/20 04:30:01;;;;;;;3.17;2.03;;;;;;;5.29;87.03;100316.59;5002565;28;20034;-65
2022/11/20 04:32:26;;;;;;;1.42;1.33;;;;;;;5.29;87.91;100315.81;5005827;28;20033;-65
2022/11/20 04:34:52;;;;;;;4.38;1.77;;;;;;;5.33;87.04;100316.72;5010747;28;20040;-65
2022/11/20 04:37:17;;;;;;;1.77;1.58;;;;;;;5.25;87.45;100315.69;5010578;28;20397;-65
2022/11/20 04:39:42;;;;;;;2.67;1.50;;;;;;;5.20;87.70;100320.44;5006466;28;20145;-65
2022/11/20 04:44:53;;;;;;;1.35;1.10;;;;;;;5.32;87.51;100313.25;5010652;28;20029;-65
2022/11/20 04:47:18;;;;;;;1.48;1.38;;;;;;;5.33;87.23;100314.03;5010223;28;20525;-65
2022/11/20 04:49:44;;;;;;;4.88;1.40;;;;;;;5.31;87.06;100313.59;5008488;28;20038;-65
2022/11/20 04:52:09;;;;;;;1.70;1.55;;;;;;;5.35;87.30;100315.28;5010608;28;20042;-65
2022/11/20 04:54:35;;;;;;;2.00;1.35;;;;;;;5.38;87.49;100313.84;5005198;28;20117;-65
2022/11/20 04:57:00;;;;;;;1.38;1.20;;;;;;;5.35;87.61;100312.63;5007625;28;20037;-63
2022/11/20 04:59:25;;;;;;;4.80;1.83;;;;;;;5.33;87.60;100309.50;4999616;28;20422;-63
2022/11/20 05:01:51;;;;;;;2.25;1.33;;;;;;;5.36;87.71;100316.06;5005137;28;20053;-64
2022/11/20 05:04:16;;;;;;;3.90;1.42;;;;;;;5.37;87.78;100317.63;4991892;28;20038;-64
2022/11/20 05:06:42;;;;;;;1.90;1.48;;;;;;;5.31;87.39;100306.38;5005113;28;20037;-64
2022/11/20 05:09:07;;;;;;;1.70;1.58;;;;;;;5.29;87.44;100307.81;5008840;28;20502;-64
2022/11/20 05:11:33;;;;;;;1.38;1.27;;;;;;;5.32;87.71;100297.25;5006722;28;20548;-64
2022/11/20 05:13:59;;;;;;;2.63;1.27;;;;;;;5.39;87.09;100294.84;5019420;28;20041;-63
2022/11/20 05:16:25;;;;;;;1.50;1.40;;;;;;;5.36;86.50;100284.03;5003577;28;20033;-63
2022/11/20 05:18:52;;;;;;;2.50;1.67;;;;;;;5.27;86.71;100292.13;4997613;28;20510;-63
2022/11/20 05:21:18;;;;;;;2.95;1.73;;;;;;;5.28;87.40;100279.56;5009957;28;20133;-64
2022/11/20 05:23:44;;;;;;;1.58;1.35;;;;;;;5.19;87.18;100286.84;5003155;28;20040;-64
2022/11/20 05:26:28;;;;;;;1.85;1.42;;;;;;;5.15;88.02;100281.38;5010611;28;20041;-64
2022/11/20 05:28:53;;;;;;;2.20;1.73;;;;;;;5.12;87.37;100284.72;5002896;28;20046;-64
2022/11/20 05:31:21;;;;;;;1.30;1.20;;;;;;;5.16;87.97;100277.63;5008649;28;20037;-64
2022/11/20 05:33:47;;;;;;;4.80;1.80;;;;;;;5.23;87.68;100279.75;5009917;28;20033;-64
2022/11/20 05:36:14;;;;;;;2.03;1.55;;;;;;;5.22;87.31;100284.31;5009863;28;20049;-64
2022/11/20 05:38:40;;;;;;;2.25;1.77;;;;;;;5.09;87.59;100273.94;5001981;28;20439;-64
2022/11/20 05:41:18;;;;;;;1.92;1.70;;;;;;;5.02;88.56;100276.31;5007395;28;20030;-64
2022/11/20 05:43:45;;;;;;;4.95;2.13;;;;;;;5.01;88.28;100275.56;5005040;28;20034;-64
2022/11/20 05:46:13;;;;;;;2.65;2.00;;;;;;;5.08;88.68;100267.00;5006056;28;20038;-64
2022/11/20 05:48:40;;;;;;;1.75;1.65;;;;;;;5.19;87.71;100266.28;5007980;28;20073;-64
2022/11/20 05:51:08;;;;;;;1.60;1.50;;;;;;;5.06;87.88;100267.34;5010170;28;20042;-64
2022/11/20 05:53:34;;;;;;;3.58;1.48;;;;;;;5.06;88.38;100267.34;5006544;28;20062;-64
2022/11/20 05:56:02;;;;;;;2.03;1.50;;;;;;;5.15;88.22;100261.94;5008988;28;20134;-64
2022/11/20 05:58:29;;;;;;;2.20;1.50;;;;;;;4.91;88.27;100254.63;5004543;28;20505;-64
2022/11/20 06:01:02;;;;;;;1.65;1.25;;;;;;;5.00;88.31;100257.97;4987835;28;20181;-64
2022/11/20 06:03:28;;;;;;;1.58;1.42;;;;;;;4.82;89.16;100256.56;5003190;28;20058;-64
2022/11/20 06:05:53;;;;;;;1.48;1.20;;;;;;;4.84;88.96;100265.00;5008818;28;20077;-64
2022/11/20 06:08:18;;;;;;;3.97;1.63;;;;;;;4.83;89.12;100268.78;5008362;28;20111;-63
2022/11/20 06:10:44;;;;;;;1.67;1.20;;;;;;;4.79;89.03;100259.09;5010210;28;20531;-64
2022/11/20 06:13:09;;;;;;;1.77;1.42;;;;;;;4.95;89.42;100270.75;5020339;28;20041;-64
2022/11/20 06:15:38;;;;;;;1.70;1.60;;;;;;;4.78;89.55;100258.31;5008849;28;20041;-64
2022/11/20 06:18:03;;;;;;;1.60;1.50;;;;;;;4.80;90.08;100261.44;5010657;28;20104;-64
2022/11/20 06:20:29;;;;;;;2.72;2.28;;;;;;;4.73;90.05;100261.19;5010632;28;20176;-64
2022/11/20 06:22:54;;;;;;;1.88;1.38;;;;;;;4.74;90.35;100259.31;5013269;28;20026;-63
2022/11/20 06:25:19;;;;;;;2.80;1.98;;;;;;;4.53;91.13;100269.94;5011632;28;20033;-64
2022/11/20 06:27:45;;;;;;;3.03;2.05;;;;;;;-144.12;91.90;100257.06;4995127;28;20052;-64
2022/11/20 06:30:11;;;;;;;2.35;1.98;;;;;;;4.38;92.60;100260.63;5013215;28;20022;-64
2022/11/20 06:32:37;;;;;;;3.95;2.45;;;;;;;4.57;92.30;100257.53;5012381;28;20049;-64
2022/11/20 06:35:02;;;;;;;4.22;1.92;;;;;;;4.54;91.88;100255.50;5007923;28;20038;-64
2022/11/20 06:37:28;;;;;;;1.90;1.73;;;;;;;4.72;91.70;100256.97;5023322;28;20470;-64
2022/11/20 06:39:53;;;;;;;4.43;1.60;;;;;;;4.76;91.51;100257.88;5006007;28;20056;-64
2022/11/20 06:42:18;;;;;;;2.25;2.08;;;;;;;4.92;90.53;100260.72;5011684;28;20026;-64
2022/11/20 06:44:44;;;;;;;5.45;2.08;;;;;;;4.93;90.63;100260.41;5008285;28;20117;-64
2022/11/20 06:47:09;;;;;;;4.30;2.45;;;;;;;4.99;90.21;100263.66;5006275;28;20046;-64
2022/11/20 06:49:36;;;;;;;2.92;2.25;;;;;;;4.99;89.79;100260.97;5012306;28;20061;-64
2022/11/20 06:52:02;;;;;;;2.22;1.88;;;;;;;5.01;89.55;100250.75;5012690;28;20092;-64
2022/11/20 06:54:27;;;;;;;2.20;1.95;;;;;;;5.03;89.70;100246.63;5012241;28;20034;-64
2022/11/20 06:56:53;;;;;;;2.35;1.55;;;;;;;5.05;89.87;100249.75;4993676;28;20117;-63
2022/11/20 06:59:18;;;;;;;3.33;2.00;;;;;;;5.02;89.53;100249.66;5013113;28;20494;-64
2022/11/20 07:01:44;;;;;;;4.20;2.20;;;;;;;5.14;89.20;100250.50;5011165;28;20030;-64
2022/11/20 07:04:09;;;;;;;2.10;1.75;;;;;;;5.08;88.60;100243.78;5000466;28;20160;-64
2022/11/20 07:06:34;;;;;;;4.00;1.85;;;;;;;5.00;89.09;100236.63;5012694;28;20079;-64
2022/11/20 07:09:01;;;;;;;2.20;2.00;;;;;;;5.05;88.93;100244.44;5008265;28;20368;-64
2022/11/20 07:11:27;;;;;;;3.42;2.40;;;;;;;5.11;89.03;100259.13;5012472;28;20483;-64
2022/11/20 07:13:52;;;;;;;3.97;2.10;;;;;;;4.98;89.55;100254.06;5012655;28;20164;-64
2022/11/20 07:16:18;;;;;;;4.20;1.88;;;;;;;5.02;89.28;100260.31;5005531;28;20113;-64
2022/11/20 07:18:43;;;;;;;4.03;1.98;;;;;;;5.10;89.57;100241.56;5003339;28;20031;-64
2022/11/20 07:21:10;;;;;;;3.05;2.22;;;;;;;5.09;89.04;100244.56;4997709;28;20045;-64
2022/11/20 07:23:36;;;;;;;3.75;2.25;;;;;;;5.07;89.31;100254.78;4993962;28;20127;-64
2022/11/20 07:26:06;;;;;;;4.03;1.95;;;;;;;4.96;90.09;100257.06;5008447;28;20052;-64
2022/11/20 07:28:32;;;;;;;5.22;2.42;;;;;;;5.09;89.66;100266.69;5002760;28;20049;-64
2022/11/20 07:30:57;;;;;;;4.55;2.65;;;;;;;5.17;89.68;100255.16;4997831;28;20034;-64
2022/11/20 07:33:23;;;;;;;4.78;2.42;;;;;;;5.19;89.77;100260.94;4996268;28;20038;-63
2022/11/20 07:35:48;;;;;;;6.88;3.13;;;;;;;5.25;89.75;100251.63;4996599;28;20116;-64
2022/11/20 07:38:14;;;;;;;6.80;3.47;;;;;;;5.23;89.62;100243.16;4994391;28;20060;-64
2022/11/20 07:40:39;;;;;;;3.97;2.58;;;;;;;5.28;89.26;100247.53;5004847;28;20049;-64
2022/11/20 07:43:05;;;;;;;6.32;3.42;;;;;;;5.36;88.91;100250.09;5006737;28;20030;-64
2022/11/20 07:45:30;;;;;;;5.55;2.70;;;;;;;5.31;88.40;100247.66;4990073;28;20057;-64
2022/11/20 07:47:55;;;;;;;4.93;2.47;;;;;;;5.24;88.75;100250.09;4997242;28;20033;-64
2022/11/20 07:50:21;;;;;;;4.97;3.08;;;;;;;5.21;89.07;100263.28;4996175;28;20402;-63
2022/11/20 07:52:47;;;;;;;5.70;2.65;;;;;;;5.27;88.83;100253.97;5010583;28;20038;-64
2022/11/20 07:55:12;;;;;;;3.75;2.58;;;;;;;5.25;89.08;100259.63;4996528;28;20100;-64
2022/11/20 07:57:38;;;;;;;5.57;3.17;;;;;;;5.29;88.14;100255.19;5014814;28;20037;-64
2022/11/20 08:00:05;;;;;;;6.55;3.47;;;;;;;5.29;88.00;100255.19;5000628;28;20395;-63
2022/11/20 08:02:41;;;;;;;2.90;2.17;;;;;;;5.29;87.83;100246.41;4996453;28;20026;-63
2022/11/20 08:05:10;;;;;;;5.00;2.75;;;;;;;5.19;88.38;100258.28;5013766;23;20050;-70
2022/11/20 08:07:40;;;;;;;4.30;2.65;;;;;;;5.23;88.24;100248.50;5004260;28;20584;-70
2022/11/20 08:10:07;;;;;;;2.33;2.03;;;;;;;5.32;87.96;100259.13;5003723;28;20112;-70
2022/11/20 08:15:18;;;;;;;3.75;2.20;;;;;;;5.28;87.89;100252.88;5003956;28;20042;-70
2022/11/20 08:17:43;;;;;;;3.58;2.60;;;;;;;5.34;87.71;100252.31;5004769;28;20034;-70
2022/11/20 08:20:09;;;;;;;4.30;2.30;;;;;;;5.41;87.59;100249.13;5008041;28;20044;-69
2022/11/20 08:22:35;;;;;;;2.63;1.88;;;;;;;5.35;87.39;100251.22;5009843;28;20068;-69
2022/11/20 08:25:00;;;;;;;4.60;2.00;;;;;;;5.35;87.15;100248.56;5000604;28;20033;-70
2022/11/20 08:27:26;;;;;;;3.58;2.10;;;;;;;5.39;86.96;100254.00;4994313;28;20598;-70
2022/11/20 08:29:51;;;;;;;6.30;2.88;;;;;;;5.39;87.26;100249.47;5007763;28;20486;-69
2022/11/20 08:32:17;;;;;;;2.70;2.40;;;;;;;5.42;87.11;100243.44;5009327;28;20034;-70
2022/11/20 08:34:42;;;;;;;4.72;3.30;;;;;;;5.45;87.25;100253.47;5014414;28;20073;-69
2022/11/20 08:37:08;;;;;;;5.18;2.55;;;;;;;5.45;86.74;100248.13;5008320;28;20385;-69
2022/11/20 08:39:33;;;;;;;5.30;2.72;;;;;;;5.53;86.80;100257.16;5003476;28;20067;-69
2022/11/20 08:41:59;;;;;;;4.15;2.78;;;;;;;5.59;86.60;100250.50;5003526;28;20084;-69
2022/11/20 08:44:24;;;;;;;5.35;2.90;;;;;;;5.56;85.78;100247.69;4997220;28;20418;-70
2022/11/20 08:46:50;;;;;;;4.63;3.08;;;;;;;5.53;86.36;100255.25;4991058;28;20038;-71
2022/11/20 08:49:15;;;;;;;4.38;2.47;;;;;;;5.52;86.21;100258.25;5000436;28;20029;-70
2022/11/20 08:51:41;;;;;;;3.90;2.15;;;;;;;5.62;86.19;100251.72;5002031;28;20029;-70
2022/11/20 08:54:07;;;;;;;4.45;2.03;;;;;;;5.53;85.30;100253.72;5007140;28;20064;-69
2022/11/20 08:56:33;;;;;;;2.85;1.98;;;;;;;5.49;86.46;100257.06;4998957;28;20492;-70
2022/11/20 08:58:59;;;;;;;3.35;2.03;;;;;;;5.55;85.85;100254.94;5002810;28;20459;-70
2022/11/20 09:01:26;;;;;;;3.60;2.40;;;;;;;5.62;85.56;100249.84;4998999;28;20038;-70
2022/11/20 09:03:51;;;;;;;4.82;2.13;;;;;;;5.73;85.46;100252.88;5003195;28;20125;-70
2022/11/20 09:06:17;;;;;;;4.90;2.05;;;;;;;5.70;85.53;100256.19;5005948;28;20109;-70
2022/11/20 09:08:43;;;;;;;3.28;1.92;;;;;;;5.70;85.90;100259.66;5003950;28;20105;-70
2022/11/20 09:11:09;;;;;;;4.05;2.17;;;;;;;5.69;85.55;100265.31;5008469;28;20125;-70
2022/11/20 09:13:36;;;;;;;2.78;1.70;;;;;;;5.66;84.99;100263.28;5005535;28;20038;-70
2022/11/20 09:16:07;;;;;;;3.33;1.85;;;;;;;5.64;85.12;100263.63;5004309;28;20429;-70
2022/11/20 09:18:37;;;;;;;3.40;1.58;;;;;;;5.73;84.77;100256.28;5017975;28;20038;-70
2022/11/20 09:21:06;;;;;;;2.50;1.50;;;;;;;5.75;85.53;100256.00;4999070;28;20406;-70
2022/11/20 09:23:34;;;;;;;1.83;1.42;;;;;;;5.71;86.34;100250.50;5006126;28;20042;-70
2022/11/20 09:26:19;;;;;;;2.67;1.67;;;;;;;5.70;87.42;100245.50;5009820;28;20854;-70
2022/11/20 09:28:45;;;;;;;2.55;1.60;;;;;;;5.86;86.92;100254.47;5004379;28;20042;-70
2022/11/20 09:31:23;;;;;;;1.92;1.50;;;;;;;5.95;86.74;100252.47;4999110;28;20069;-70
2022/11/20 09:33:49;;;;;;;1.75;1.20;;;;;;;6.10;87.29;100251.78;5004634;28;20069;-69
2022/11/20 09:36:16;;;;;;;2.00;1.77;;;;;;;6.19;87.01;100250.56;5004624;28;20072;-70
2022/11/20 09:38:42;;;;;;;1.98;1.55;;;;;;;6.16;86.66;100243.22;5003444;28;20152;-70
2022/11/20 09:41:29;;;;;;;1.55;1.05;;;;;;;6.16;86.22;100245.09;5006216;28;20036;-70
2022/11/20 09:44:29;;;;;;;1.63;1.33;;;;;;;6.22;86.41;100251.78;5007429;28;20038;-70
2022/11/20 09:47:02;;;;;;;1.73;1.30;;;;;;;6.30;86.70;100246.34;4972400;28;20089;-70
2022/11/20 09:49:50;;;;;;;1.20;1.08;;;;;;;6.35;86.39;100251.44;4990381;28;20034;-70
2022/11/20 09:52:37;;;;;;;1.48;1.38;;;;;;;6.31;86.35;100247.09;5011627;28;20475;-70
2022/11/20 09:55:04;;;;;;;1.27;1.17;;;;;;;6.36;86.47;100253.03;4985669;28;20700;-70
2022/11/20 09:57:36;;;;;;;1.30;1.17;;;;;;;6.50;86.47;100257.22;5005161;28;20549;-72
2022/11/20 10:00:05;;;;;;;1.77;1.50;;;;;;;6.60;86.29;100264.78;5002872;28;20034;-70
2022/11/20 10:02:55;;;;;;;3.60;1.58;;;;;;;6.64;86.27;100253.06;5009348;28;20037;-70
2022/11/20 10:05:41;;;;;;;1.60;1.50;;;;;;;6.52;85.70;100246.97;5008131;28;20037;-70
2022/11/20 10:08:17;;;;;;;1.17;1.10;;;;;;;6.45;85.30;100257.44;5006196;28;20118;-70
2022/11/20 10:10:52;;;;;;;2.10;1.20;;;;;;;6.43;85.35;100257.78;5008497;28;20501;-70
2022/11/20 10:13:39;;;;;;;1.27;1.17;;;;;;;6.41;85.64;100248.56;5009230;28;20418;-70
2022/11/20 10:16:14;;;;;;;1.70;1.40;;;;;;;6.39;85.06;100256.91;5008947;28;20486;-70
2022/11/20 10:18:42;;;;;;;2.05;1.35;;;;;;;6.32;84.99;100254.81;5004082;28;20601;-70
2022/11/20 10:21:17;;;;;;;2.15;0.95;;;;;;;6.35;85.59;100250.66;5008466;28;20393;-70
2022/11/20 10:23:52;;;;;;;1.70;1.25;;;;;;;6.19;85.32;100255.16;5004436;28;20050;-70
2022/11/20 10:26:26;;;;;;;3.08;1.63;;;;;;;6.26;85.24;100248.13;5005746;28;20041;-70
2022/11/20 10:29:09;;;;;;;1.35;1.17;;;;;;;6.17;85.26;100241.34;5007620;28;20042;-70
2022/11/20 10:31:39;;;;;;;2.63;1.50;;;;;;;6.13;86.25;100235.09;5006322;28;20034;-70
2022/11/20 10:34:21;;;;;;;1.48;1.38;;;;;;;6.22;86.05;100236.53;5005436;28;20053;-70
2022/11/20 10:36:55;;;;;;;1.98;1.70;;;;;;;6.29;85.80;100234.06;5003542;28;20026;-70
2022/11/20 10:39:50;;;;;;;1.77;1.08;;;;;;;6.36;85.96;100231.63;5004992;28;20592;-70
2022/11/20 10:42:22;;;;;;;1.95;1.45;;;;;;;6.29;85.27;100234.06;5008808;28;20030;-69
2022/11/20 10:45:00;;;;;;;1.73;1.48;;;;;;;6.31;85.97;100233.72;5005996;28;20520;-70
2022/11/20 10:47:29;;;;;;;2.22;1.75;;;;;;;6.37;85.82;100243.06;5005532;28;20036;-70
2022/11/20 10:50:01;;;;;;;1.90;1.52;;;;;;;6.35;85.86;100231.94;5004141;28;20034;-70
2022/11/20 10:52:59;;;;;;;3.72;1.75;;;;;;;6.45;84.98;100236.84;5013712;28;20410;-70
2022/11/20 10:55:24;;;;;;;2.25;1.70;;;;;;;6.51;85.42;100240.06;4997280;28;20077;-70
2022/11/20 10:58:08;;;;;;;2.53;1.85;;;;;;;6.55;85.28;100241.72;5002054;28;20124;-70
2022/11/20 11:00:34;;;;;;;5.20;1.27;;;;;;;6.51;85.01;100237.38;5006112;28;20494;-70
2022/11/20 11:03:03;;;;;;;1.15;1.15;;;;;;;6.45;85.20;100236.03;5007949;28;20018;-70
2022/11/20 11:05:38;;;;;;;1.92;1.10;;;;;;;6.38;84.81;100229.41;4992617;28;20464;-70
2022/11/20 11:08:12;;;;;;;1.55;1.45;;;;;;;6.50;84.82;100235.84;4985961;28;20491;-70
2022/11/20 11:10:57;;;;;;;3.17;1.80;;;;;;;6.48;84.65;100228.16;5007740;28;20116;-70
2022/11/20 11:13:25;;;;;;;1.52;1.35;;;;;;;6.44;84.33;100229.94;4999254;28;20394;-70
2022/11/20 11:15:51;;;;;;;1.35;1.17;;;;;;;6.50;84.07;100220.56;4997938;28;20075;-70
2022/11/20 11:18:27;;;;;;;3.33;2.17;;;;;;;6.53;83.78;100219.09;4995863;28;20034;-70
2022/11/20 11:20:53;;;;;;;1.33;1.08;;;;;;;6.42;83.50;100218.00;5009848;28;20029;-71
2022/11/20 11:23:40;;;;;;;1.60;1.10;;;;;;;6.38;83.78;100207.22;5006999;28;20038;-70
2022/11/20 11:26:21;;;;;;;1.77;1.25;;;;;;;6.38;83.39;100209.91;5006838;28;20541;-70
2022/11/20 11:28:58;;;;;;;1.55;1.20;;;;;;;6.42;83.28;100210.00;5016804;28;20062;-70
2022/11/20 11:31:30;;;;;;;1.25;1.05;;;;;;;6.50;82.70;100215.22;5000123;28;20041;-71
2022/11/20 11:34:16;;;;;;;1.38;1.27;;;;;;;6.55;82.80;100214.19;5011285;28;20109;-70
2022/11/20 11:36:51;;;;;;;1.50;1.00;;;;;;;6.54;81.67;100207.28;5004057;28;20031;-70
2022/11/20 11:39:20;;;;;;;1.30;1.10;;;;;;;6.51;81.63;100205.28;5002366;28;20053;-71
2022/11/20 11:41:46;;;;;;;1.50;1.40;;;;;;;6.54;81.39;100205.41;5009114;28;20538;-71
2022/11/20 11:47:03;;;;;;;1.20;1.08;;;;;;;6.59;80.01;100202.47;5024269;28;20502;-71
2022/11/20 11:49:29;;;;;;;7.30;1.48;;;;;;;6.59;80.26;100199.81;5004944;28;20034;-71
2022/11/20 11:52:04;;;;;;;1.55;1.20;;;;;;;6.64;79.88;100199.56;5009116;28;20037;-71